createdAt,value
2023-05-12T00:00:27.908Z,11.75
2023-05-12T00:00:59.477Z,11.76
2023-05-12T00:01:30.879Z,11.75
2023-05-12T00:02:03.399Z,11.74
2023-05-12T00:02:34.872Z,11.73
2023-05-12T00:03:06.643Z,11.70
2023-05-12T00:03:38.223Z,11.71
2023-05-12T00:04:10.180Z,11.70
2023-05-12T00:04:41.782Z,11.72
2023-05-12T00:05:13.244Z,11.73
2023-05-12T00:05:44.855Z,11.74
2023-05-12T00:06:18.192Z,11.76
2023-05-12T00:06:51.209Z,11.75
2023-05-12T00:07:23.076Z,11.74
2023-05-12T00:07:55.231Z,11.74
2023-05-12T00:08:26.748Z,11.74
2023-05-12T00:08:58.212Z,11.73
2023-05-12T00:09:29.676Z,11.72
2023-05-12T00:10:01.376Z,11.73
2023-05-12T00:10:32.881Z,11.72
2023-05-12T00:11:04.429Z,11.70
2023-05-12T00:11:38.010Z,11.70
2023-05-12T00:12:09.810Z,11.68
2023-05-12T00:12:41.582Z,11.67
2023-05-12T00:13:13.094Z,11.67
2023-05-12T00:13:44.843Z,11.68
2023-05-12T00:14:16.408Z,11.69
2023-05-12T00:14:47.840Z,11.67
2023-05-12T00:15:20.000Z,11.66
2023-05-12T00:15:51.615Z,11.65
2023-05-12T00:16:23.440Z,11.63
2023-05-12T00:16:54.904Z,11.62
2023-05-12T00:17:27.923Z,11.60
2023-05-12T00:17:59.557Z,11.59
2023-05-12T00:18:31.259Z,11.60
2023-05-12T00:19:02.818Z,11.63
2023-05-12T00:19:36.487Z,11.62
2023-05-12T00:20:08.480Z,11.62
2023-05-12T00:20:40.190Z,11.63
2023-05-12T00:21:12.407Z,11.61
2023-05-12T00:21:44.237Z,11.61
2023-05-12T00:22:17.034Z,11.57
2023-05-12T00:22:48.457Z,11.56
2023-05-12T00:23:19.826Z,11.56
2023-05-12T00:23:51.199Z,11.54
2023-05-12T00:24:22.626Z,11.56
2023-05-12T00:24:54.041Z,11.54
2023-05-12T00:25:25.612Z,11.54
2023-05-12T00:25:57.120Z,11.52
2023-05-12T00:26:28.783Z,11.53
2023-05-12T00:27:00.840Z,11.53
2023-05-12T00:27:33.361Z,11.53
2023-05-12T00:28:05.642Z,11.53
2023-05-12T00:28:37.026Z,11.52
2023-05-12T00:29:08.447Z,11.51
2023-05-12T00:29:40.229Z,11.49
2023-05-12T00:30:11.975Z,11.49
2023-05-12T00:30:43.623Z,11.48
2023-05-12T00:31:15.822Z,11.47
2023-05-12T00:31:47.462Z,11.45
2023-05-12T00:32:19.075Z,11.45
2023-05-12T00:32:50.962Z,11.44
2023-05-12T00:33:22.808Z,11.43
2023-05-12T00:33:54.370Z,11.42
2023-05-12T00:34:27.464Z,11.42
2023-05-12T00:35:00.109Z,11.44
2023-05-12T00:35:35.481Z,11.44
2023-05-12T00:36:07.848Z,11.45
2023-05-12T00:36:40.189Z,11.43
2023-05-12T00:37:11.683Z,11.44
2023-05-12T00:37:43.476Z,11.44
2023-05-12T00:38:14.950Z,11.45
2023-05-12T00:38:46.559Z,11.46
2023-05-12T00:39:18.239Z,11.46
2023-05-12T00:39:49.787Z,11.48
2023-05-12T00:40:21.215Z,11.47
2023-05-12T00:40:53.138Z,11.48
2023-05-12T00:41:24.480Z,11.47
2023-05-12T00:41:59.211Z,11.48
2023-05-12T00:42:30.763Z,11.48
2023-05-12T00:43:03.117Z,11.46
2023-05-12T00:43:34.526Z,11.46
2023-05-12T00:44:05.955Z,11.46
2023-05-12T00:44:37.601Z,11.46
2023-05-12T00:45:09.425Z,11.45
2023-05-12T00:45:40.911Z,11.45
2023-05-12T00:46:12.550Z,11.47
2023-05-12T00:46:44.019Z,11.47
2023-05-12T00:47:15.754Z,11.47
2023-05-12T00:47:47.452Z,11.47
2023-05-12T00:48:19.552Z,11.47
2023-05-12T00:48:51.694Z,11.47
2023-05-12T00:49:25.638Z,11.47
2023-05-12T00:49:57.108Z,11.46
2023-05-12T00:50:28.617Z,11.44
2023-05-12T00:51:02.084Z,11.41
2023-05-12T00:51:34.060Z,11.40
2023-05-12T00:52:08.419Z,11.40
2023-05-12T00:52:40.173Z,11.38
2023-05-12T00:53:12.854Z,11.38
2023-05-12T00:53:50.046Z,11.39
2023-05-12T00:54:22.634Z,11.37
2023-05-12T00:54:54.693Z,11.36
2023-05-12T00:55:26.878Z,11.35
2023-05-12T00:55:58.630Z,11.35
2023-05-12T00:56:35.442Z,11.35
2023-05-12T00:57:06.887Z,11.37
2023-05-12T00:57:38.837Z,11.37
2023-05-12T00:58:10.325Z,11.36
2023-05-12T00:58:41.768Z,11.37
2023-05-12T00:59:13.302Z,11.36
2023-05-12T00:59:45.985Z,11.38
2023-05-12T01:00:18.662Z,11.38
2023-05-12T01:00:50.629Z,11.38
2023-05-12T01:01:24.026Z,11.38
2023-05-12T01:01:56.428Z,11.39
2023-05-12T01:02:28.974Z,11.39
2023-05-12T01:03:00.984Z,11.39
2023-05-12T01:03:32.604Z,11.40
2023-05-12T01:04:04.279Z,11.38
2023-05-12T01:04:36.202Z,11.37
2023-05-12T01:05:10.033Z,11.37
2023-05-12T01:05:51.045Z,11.38
2023-05-12T01:06:30.057Z,11.37
2023-05-12T01:07:12.601Z,11.38
2023-05-12T01:07:46.701Z,11.38
2023-05-12T01:08:20.222Z,11.37
2023-05-12T01:08:53.125Z,11.38
2023-05-12T01:09:24.960Z,11.37
2023-05-12T01:09:57.186Z,11.37
2023-05-12T01:10:28.797Z,11.36
2023-05-12T01:11:00.312Z,11.34
2023-05-12T01:11:31.750Z,11.35
2023-05-12T01:12:03.632Z,11.35
2023-05-12T01:12:35.019Z,11.35
2023-05-12T01:13:06.720Z,11.34
2023-05-12T01:13:41.099Z,11.33
2023-05-12T01:14:12.711Z,11.32
2023-05-12T01:14:44.172Z,11.32
2023-05-12T01:15:15.963Z,11.31
2023-05-12T01:15:48.301Z,11.31
2023-05-12T01:16:26.201Z,11.32
2023-05-12T01:17:01.979Z,11.33
2023-05-12T01:17:36.445Z,11.34
2023-05-12T01:18:10.678Z,11.33
2023-05-12T01:18:49.791Z,11.34
2023-05-12T01:19:49.509Z,11.33
2023-05-12T01:20:23.858Z,11.30
2023-05-12T01:20:56.535Z,11.31
2023-05-12T01:21:28.066Z,11.29
2023-05-12T01:22:00.444Z,11.29
2023-05-12T01:22:34.166Z,11.26
2023-05-12T01:23:06.784Z,11.27
2023-05-12T01:23:44.543Z,11.27
2023-05-12T01:24:19.924Z,11.27
2023-05-12T01:24:55.419Z,11.27
2023-05-12T01:25:31.079Z,11.28
2023-05-12T01:26:06.683Z,11.29
2023-05-12T01:26:38.743Z,11.28
2023-05-12T01:27:10.727Z,11.28
2023-05-12T01:27:43.168Z,11.29
2023-05-12T01:28:16.269Z,11.30
2023-05-12T01:28:48.247Z,11.29
2023-05-12T01:29:21.077Z,11.29
2023-05-12T01:30:01.992Z,11.28
2023-05-12T01:30:34.389Z,11.27
2023-05-12T01:31:07.729Z,11.28
2023-05-12T01:31:39.313Z,11.27
2023-05-12T01:32:11.057Z,11.28
2023-05-12T01:32:42.777Z,11.28
2023-05-12T01:33:14.337Z,11.29
2023-05-12T01:33:45.746Z,11.27
2023-05-12T01:34:18.523Z,11.25
2023-05-12T01:34:51.070Z,11.23
2023-05-12T01:35:22.475Z,11.25
2023-05-12T01:35:53.909Z,11.24
2023-05-12T01:36:25.436Z,11.24
2023-05-12T01:36:57.389Z,11.25
2023-05-12T01:37:29.021Z,11.27
2023-05-12T01:38:00.829Z,11.28
2023-05-12T01:38:32.942Z,11.27
2023-05-12T01:39:04.386Z,11.27
2023-05-12T01:39:36.601Z,11.27
2023-05-12T01:40:08.611Z,11.27
2023-05-12T01:40:39.990Z,11.26
2023-05-12T01:41:11.603Z,11.27
2023-05-12T01:41:48.725Z,11.26
2023-05-12T01:42:20.153Z,11.28
2023-05-12T01:42:51.536Z,11.28
2023-05-12T01:43:22.989Z,11.27
2023-05-12T01:43:54.410Z,11.30
2023-05-12T01:44:27.190Z,11.31
2023-05-12T01:44:58.554Z,11.31
2023-05-12T01:45:30.092Z,11.31
2023-05-12T01:46:01.634Z,11.31
2023-05-12T01:46:33.135Z,11.30
2023-05-12T01:47:04.814Z,11.30
2023-05-12T01:47:36.514Z,11.28
2023-05-12T01:48:08.083Z,11.29
2023-05-12T01:48:39.523Z,11.27
2023-05-12T01:49:10.909Z,11.27
2023-05-12T01:49:42.415Z,11.29
2023-05-12T01:50:13.770Z,11.29
2023-05-12T01:50:45.424Z,11.30
2023-05-12T01:51:17.355Z,11.32
2023-05-12T01:51:48.863Z,11.33
2023-05-12T01:52:20.907Z,11.33
2023-05-12T01:52:52.237Z,11.32
2023-05-12T01:53:25.950Z,11.33
2023-05-12T01:53:57.723Z,11.33
2023-05-12T01:54:29.618Z,11.33
2023-05-12T01:55:01.040Z,11.32
2023-05-12T01:55:32.469Z,11.32
2023-05-12T01:56:04.127Z,11.32
2023-05-12T01:56:35.675Z,11.32
2023-05-12T01:57:07.070Z,11.33
2023-05-12T01:57:38.529Z,11.33
2023-05-12T01:58:09.889Z,11.33
2023-05-12T01:58:41.427Z,11.34
2023-05-12T01:59:12.873Z,11.34
2023-05-12T01:59:44.257Z,11.34
2023-05-12T02:00:16.210Z,11.32
2023-05-12T02:00:47.806Z,11.33
2023-05-12T02:01:19.212Z,11.35
2023-05-12T02:01:50.794Z,11.34
2023-05-12T02:02:22.229Z,11.35
2023-05-12T02:02:53.905Z,11.36
2023-05-12T02:03:25.474Z,11.37
2023-05-12T02:03:57.388Z,11.38
2023-05-12T02:04:28.963Z,11.38
2023-05-12T02:05:00.630Z,11.40
2023-05-12T02:05:32.012Z,11.40
2023-05-12T02:06:03.603Z,11.39
2023-05-12T02:06:35.021Z,11.39
2023-05-12T02:07:06.427Z,11.38
2023-05-12T02:07:38.642Z,11.36
2023-05-12T02:08:10.061Z,11.35
2023-05-12T02:08:41.671Z,11.34
2023-05-12T02:09:13.295Z,11.35
2023-05-12T02:09:44.690Z,11.35
2023-05-12T02:10:16.731Z,11.36
2023-05-12T02:10:48.305Z,11.36
2023-05-12T02:11:19.981Z,11.35
2023-05-12T02:11:51.735Z,11.34
2023-05-12T02:12:23.126Z,11.34
2023-05-12T02:12:54.587Z,11.33
2023-05-12T02:13:26.124Z,11.32
2023-05-12T02:13:58.509Z,11.32
2023-05-12T02:14:29.904Z,11.31
2023-05-12T02:15:01.577Z,11.31
2023-05-12T02:15:32.912Z,11.31
2023-05-12T02:16:05.059Z,11.31
2023-05-12T02:16:36.725Z,11.31
2023-05-12T02:17:08.612Z,11.30
2023-05-12T02:17:40.046Z,11.29
2023-05-12T02:18:11.729Z,11.29
2023-05-12T02:18:43.148Z,11.28
2023-05-12T02:19:14.573Z,11.28
2023-05-12T02:19:46.121Z,11.27
2023-05-12T02:20:17.726Z,11.27
2023-05-12T02:20:49.686Z,11.26
2023-05-12T02:21:21.154Z,11.25
2023-05-12T02:21:52.641Z,11.24
2023-05-12T02:22:24.011Z,11.24
2023-05-12T02:22:55.583Z,11.24
2023-05-12T02:23:26.968Z,11.24
2023-05-12T02:23:58.324Z,11.25
2023-05-12T02:24:29.738Z,11.24
2023-05-12T02:25:01.386Z,11.25
2023-05-12T02:25:32.815Z,11.26
2023-05-12T02:26:04.295Z,11.26
2023-05-12T02:26:35.662Z,11.25
2023-05-12T02:27:07.060Z,11.25
2023-05-12T02:27:38.479Z,11.25
2023-05-12T02:28:11.712Z,11.24
2023-05-12T02:28:43.237Z,11.25
2023-05-12T02:29:14.651Z,11.24
2023-05-12T02:29:46.314Z,11.25
2023-05-12T02:30:18.133Z,11.24
2023-05-12T02:30:51.033Z,11.26
2023-05-12T02:31:22.725Z,11.24
2023-05-12T02:31:54.327Z,11.24
2023-05-12T02:32:28.134Z,11.24
2023-05-12T02:32:59.589Z,11.24
2023-05-12T02:33:31.056Z,11.24
2023-05-12T02:34:05.802Z,11.24
2023-05-12T02:34:37.959Z,11.26
2023-05-12T02:35:09.981Z,11.25
2023-05-12T02:35:41.325Z,11.25
2023-05-12T02:36:12.788Z,11.25
2023-05-12T02:36:44.247Z,11.25
2023-05-12T02:37:15.799Z,11.25
2023-05-12T02:37:47.160Z,11.24
2023-05-12T02:38:18.743Z,11.24
2023-05-12T02:38:50.150Z,11.24
2023-05-12T02:39:21.594Z,11.25
2023-05-12T02:39:52.935Z,11.24
2023-05-12T02:40:24.269Z,11.25
2023-05-12T02:40:55.845Z,11.25
2023-05-12T02:41:27.262Z,11.24
2023-05-12T02:41:58.607Z,11.24
2023-05-12T02:42:35.282Z,11.23
2023-05-12T02:43:07.186Z,11.24
2023-05-12T02:43:38.584Z,11.23
2023-05-12T02:44:09.892Z,11.24
2023-05-12T02:44:41.209Z,11.23
2023-05-12T02:45:13.051Z,11.23
2023-05-12T02:45:44.469Z,11.23
2023-05-12T02:46:15.984Z,11.24
2023-05-12T02:46:47.414Z,11.24
2023-05-12T02:47:18.738Z,11.23
2023-05-12T02:47:50.205Z,11.23
2023-05-12T02:48:21.718Z,11.22
2023-05-12T02:48:53.165Z,11.23
2023-05-12T02:49:24.864Z,11.23
2023-05-12T02:49:56.954Z,11.22
2023-05-12T02:50:28.613Z,11.22
2023-05-12T02:51:00.007Z,11.21
2023-05-12T02:51:31.944Z,11.20
2023-05-12T02:52:03.660Z,11.20
2023-05-12T02:52:35.205Z,11.20
2023-05-12T02:53:06.901Z,11.21
2023-05-12T02:53:38.403Z,11.22
2023-05-12T02:54:09.952Z,11.20
2023-05-12T02:54:41.400Z,11.20
2023-05-12T02:55:12.748Z,11.18
2023-05-12T02:55:44.196Z,11.16
2023-05-12T02:56:16.227Z,11.16
2023-05-12T02:56:49.864Z,11.16
2023-05-12T02:57:21.353Z,11.16
2023-05-12T02:57:53.390Z,11.17
2023-05-12T02:58:25.221Z,11.18
2023-05-12T02:58:56.619Z,11.19
2023-05-12T02:59:28.739Z,11.19
2023-05-12T03:00:01.608Z,11.21
2023-05-12T03:00:33.070Z,11.18
2023-05-12T03:01:10.966Z,11.18
2023-05-12T03:01:43.197Z,11.17
2023-05-12T03:02:14.675Z,11.17
2023-05-12T03:02:46.155Z,11.16
2023-05-12T03:03:17.949Z,11.17
2023-05-12T03:03:49.495Z,11.18
2023-05-12T03:04:20.873Z,11.19
2023-05-12T03:04:52.204Z,11.18
2023-05-12T03:05:23.622Z,11.20
2023-05-12T03:05:55.343Z,11.21
2023-05-12T03:06:26.772Z,11.21
2023-05-12T03:06:58.149Z,11.20
2023-05-12T03:07:29.641Z,11.20
2023-05-12T03:08:01.208Z,11.20
2023-05-12T03:08:32.892Z,11.18
2023-05-12T03:09:04.350Z,11.17
2023-05-12T03:09:35.803Z,11.18
2023-05-12T03:10:09.830Z,11.17
2023-05-12T03:10:41.390Z,11.18
2023-05-12T03:11:13.041Z,11.17
2023-05-12T03:11:44.488Z,11.17
2023-05-12T03:12:16.012Z,11.18
2023-05-12T03:12:47.548Z,11.19
2023-05-12T03:13:18.949Z,11.19
2023-05-12T03:13:50.502Z,11.19
2023-05-12T03:14:21.900Z,11.20
2023-05-12T03:14:53.344Z,11.20
2023-05-12T03:15:24.950Z,11.20
2023-05-12T03:16:01.071Z,11.21
2023-05-12T03:16:32.494Z,11.21
2023-05-12T03:17:04.234Z,11.21
2023-05-12T03:17:36.515Z,11.21
2023-05-12T03:18:08.045Z,11.22
2023-05-12T03:18:39.500Z,11.20
2023-05-12T03:19:10.985Z,11.21
2023-05-12T03:19:42.589Z,11.20
2023-05-12T03:20:13.983Z,11.21
2023-05-12T03:20:45.481Z,11.22
2023-05-12T03:21:17.103Z,11.22
2023-05-12T03:21:49.329Z,11.22
2023-05-12T03:22:20.842Z,11.22
2023-05-12T03:22:52.317Z,11.23
2023-05-12T03:23:23.801Z,11.22
2023-05-12T03:23:55.185Z,11.23
2023-05-12T03:24:26.805Z,11.21
2023-05-12T03:24:58.258Z,11.22
2023-05-12T03:25:29.783Z,11.22
2023-05-12T03:26:01.487Z,11.20
2023-05-12T03:26:32.829Z,11.20
2023-05-12T03:27:04.393Z,11.21
2023-05-12T03:27:36.076Z,11.21
2023-05-12T03:28:07.474Z,11.21
2023-05-12T03:28:38.865Z,11.21
2023-05-12T03:29:10.675Z,11.21
2023-05-12T03:29:42.052Z,11.22
2023-05-12T03:30:14.546Z,11.22
2023-05-12T03:30:46.061Z,11.21
2023-05-12T03:31:17.880Z,11.22
2023-05-12T03:31:49.408Z,11.22
2023-05-12T03:32:20.857Z,11.22
2023-05-12T03:32:52.349Z,11.22
2023-05-12T03:33:23.700Z,11.22
2023-05-12T03:33:55.054Z,11.24
2023-05-12T03:34:26.400Z,11.24
2023-05-12T03:34:57.900Z,11.24
2023-05-12T03:35:29.657Z,11.24
2023-05-12T03:36:01.096Z,11.25
2023-05-12T03:36:32.534Z,11.24
2023-05-12T03:37:04.092Z,11.23
2023-05-12T03:37:35.537Z,11.24
2023-05-12T03:38:07.036Z,11.22
2023-05-12T03:38:38.455Z,11.23
2023-05-12T03:39:09.924Z,11.24
2023-05-12T03:39:41.371Z,11.24
2023-05-12T03:40:18.527Z,11.23
2023-05-12T03:40:53.248Z,11.22
2023-05-12T03:41:25.133Z,11.21
2023-05-12T03:41:56.733Z,11.21
2023-05-12T03:42:28.706Z,11.21
2023-05-12T03:43:00.125Z,11.21
2023-05-12T03:43:32.150Z,11.22
2023-05-12T03:44:05.608Z,11.21
2023-05-12T03:44:37.008Z,11.21
2023-05-12T03:45:09.574Z,11.22
2023-05-12T03:45:41.378Z,11.22
2023-05-12T03:46:12.758Z,11.22
2023-05-12T03:46:44.299Z,11.21
2023-05-12T03:47:15.896Z,11.19
2023-05-12T03:47:47.566Z,11.19
2023-05-12T03:48:19.111Z,11.19
2023-05-12T03:48:51.489Z,11.18
2023-05-12T03:49:22.969Z,11.18
2023-05-12T03:49:54.701Z,11.18
2023-05-12T03:50:26.089Z,11.17
2023-05-12T03:50:57.499Z,11.18
2023-05-12T03:51:29.005Z,11.18
2023-05-12T03:52:00.631Z,11.17
2023-05-12T03:52:32.027Z,11.18
2023-05-12T03:53:03.461Z,11.18
2023-05-12T03:53:34.897Z,11.17
2023-05-12T03:54:06.292Z,11.17
2023-05-12T03:54:38.104Z,11.18
2023-05-12T03:55:10.329Z,11.19
2023-05-12T03:55:42.354Z,11.19
2023-05-12T03:56:15.698Z,11.18
2023-05-12T03:56:47.150Z,11.18
2023-05-12T03:57:18.559Z,11.17
2023-05-12T03:57:50.265Z,11.18
2023-05-12T03:58:24.557Z,11.19
2023-05-12T03:58:57.153Z,11.18
2023-05-12T03:59:31.539Z,11.19
2023-05-12T04:00:04.996Z,11.21
2023-05-12T04:00:36.994Z,11.22
2023-05-12T04:01:08.570Z,11.23
2023-05-12T04:01:40.045Z,11.23
2023-05-12T04:02:13.280Z,11.24
2023-05-12T04:02:44.939Z,11.23
2023-05-12T04:03:17.148Z,11.23
2023-05-12T04:03:48.956Z,11.23
2023-05-12T04:04:20.680Z,11.22
2023-05-12T04:04:52.048Z,11.23
2023-05-12T04:05:23.493Z,11.21
2023-05-12T04:06:02.363Z,11.22
2023-05-12T04:06:33.814Z,11.23
2023-05-12T04:07:05.245Z,11.23
2023-05-12T04:07:37.058Z,11.25
2023-05-12T04:08:09.341Z,11.26
2023-05-12T04:08:42.101Z,11.26
2023-05-12T04:09:13.806Z,11.27
2023-05-12T04:09:45.218Z,11.27
2023-05-12T04:10:17.341Z,11.27
2023-05-12T04:10:48.838Z,11.27
2023-05-12T04:11:20.734Z,11.28
2023-05-12T04:11:52.079Z,11.28
2023-05-12T04:12:23.570Z,11.28
2023-05-12T04:12:55.309Z,11.29
2023-05-12T04:13:28.866Z,11.30
2023-05-12T04:14:00.270Z,11.30
2023-05-12T04:14:41.697Z,11.30
2023-05-12T04:15:14.992Z,11.30
2023-05-12T04:15:46.661Z,11.30
2023-05-12T04:16:18.314Z,11.28
2023-05-12T04:16:49.844Z,11.30
2023-05-12T04:17:21.322Z,11.30
2023-05-12T04:17:52.770Z,11.31
2023-05-12T04:18:25.585Z,11.32
2023-05-12T04:18:57.358Z,11.32
2023-05-12T04:19:28.842Z,11.33
2023-05-12T04:20:00.577Z,11.33
2023-05-12T04:20:31.962Z,11.33
2023-05-12T04:21:03.771Z,11.34
2023-05-12T04:21:35.408Z,11.36
2023-05-12T04:22:06.756Z,11.36
2023-05-12T04:22:38.302Z,11.36
2023-05-12T04:23:09.846Z,11.37
2023-05-12T04:23:41.497Z,11.38
2023-05-12T04:24:12.917Z,11.36
2023-05-12T04:24:44.606Z,11.38
2023-05-12T04:25:16.179Z,11.37
2023-05-12T04:25:47.895Z,11.37
2023-05-12T04:26:19.354Z,11.38
2023-05-12T04:26:51.285Z,11.36
2023-05-12T04:27:23.447Z,11.37
2023-05-12T04:27:54.804Z,11.36
2023-05-12T04:28:26.257Z,11.36
2023-05-12T04:28:57.648Z,11.35
2023-05-12T04:29:29.551Z,11.37
2023-05-12T04:30:01.315Z,11.37
2023-05-12T04:30:33.232Z,11.39
2023-05-12T04:31:04.706Z,11.37
2023-05-12T04:31:36.322Z,11.39
2023-05-12T04:32:08.222Z,11.39
2023-05-12T04:32:39.902Z,11.41
2023-05-12T04:33:11.496Z,11.41
2023-05-12T04:33:43.308Z,11.40
2023-05-12T04:34:14.657Z,11.42
2023-05-12T04:34:46.832Z,11.41
2023-05-12T04:35:18.216Z,11.41
2023-05-12T04:35:49.580Z,11.42
2023-05-12T04:36:21.030Z,11.43
2023-05-12T04:36:53.017Z,11.44
2023-05-12T04:37:24.439Z,11.45
2023-05-12T04:37:55.873Z,11.43
2023-05-12T04:38:27.564Z,11.46
2023-05-12T04:38:59.122Z,11.46
2023-05-12T04:39:30.616Z,11.45
2023-05-12T04:40:02.163Z,11.45
2023-05-12T04:40:35.005Z,11.45
2023-05-12T04:41:06.665Z,11.45
2023-05-12T04:41:38.117Z,11.44
2023-05-12T04:42:09.542Z,11.46
2023-05-12T04:42:41.037Z,11.46
2023-05-12T04:43:59.895Z,11.47
2023-05-12T04:44:03.914Z,11.47
2023-05-12T04:44:35.462Z,11.47
2023-05-12T04:45:07.866Z,11.47
2023-05-12T04:45:39.337Z,11.46
2023-05-12T04:46:10.786Z,11.47
2023-05-12T04:46:43.139Z,11.47
2023-05-12T04:47:14.602Z,11.47
2023-05-12T04:47:46.250Z,11.48
2023-05-12T04:48:17.670Z,11.48
2023-05-12T04:48:49.214Z,11.49
2023-05-12T04:49:20.615Z,11.49
2023-05-12T04:49:52.121Z,11.50
2023-05-12T04:50:23.654Z,11.51
2023-05-12T04:50:55.691Z,11.50
2023-05-12T04:51:27.070Z,11.50
2023-05-12T04:51:58.654Z,11.51
2023-05-12T04:52:30.288Z,11.52
2023-05-12T04:53:01.697Z,11.52
2023-05-12T04:53:34.667Z,11.53
2023-05-12T04:54:06.169Z,11.55
2023-05-12T04:54:38.892Z,11.56
2023-05-12T04:55:10.401Z,11.55
2023-05-12T04:55:42.760Z,11.55
2023-05-12T04:56:14.458Z,11.55
2023-05-12T04:56:46.217Z,11.57
2023-05-12T04:57:17.622Z,11.57
2023-05-12T04:57:49.345Z,11.58
2023-05-12T04:58:20.755Z,11.58
2023-05-12T04:58:52.191Z,11.59
2023-05-12T04:59:24.085Z,11.59
2023-05-12T04:59:56.438Z,11.58
2023-05-12T05:00:27.884Z,11.60
2023-05-12T05:01:00.029Z,11.61
2023-05-12T05:01:31.735Z,11.62
2023-05-12T05:02:03.338Z,11.61
2023-05-12T05:02:35.459Z,11.63
2023-05-12T05:03:07.069Z,11.64
2023-05-12T05:03:39.501Z,11.64
2023-05-12T05:04:13.294Z,11.65
2023-05-12T05:04:44.875Z,11.65
2023-05-12T05:05:16.574Z,11.64
2023-05-12T05:05:49.137Z,11.64
2023-05-12T05:06:20.687Z,11.64
2023-05-12T05:06:52.144Z,11.64
2023-05-12T05:07:23.551Z,11.62
2023-05-12T05:07:54.925Z,11.63
2023-05-12T05:08:26.368Z,11.63
2023-05-12T05:08:57.782Z,11.62
2023-05-12T05:09:29.479Z,11.63
2023-05-12T05:10:01.090Z,11.65
2023-05-12T05:10:32.630Z,11.65
2023-05-12T05:11:04.378Z,11.65
2023-05-12T05:11:35.780Z,11.66
2023-05-12T05:12:07.723Z,11.67
2023-05-12T05:12:39.054Z,11.67
2023-05-12T05:13:10.441Z,11.68
2023-05-12T05:13:41.792Z,11.67
2023-05-12T05:14:13.268Z,11.68
2023-05-12T05:14:47.582Z,11.70
2023-05-12T05:15:19.758Z,11.69
2023-05-12T05:15:52.355Z,11.70
2023-05-12T05:16:24.242Z,11.68
2023-05-12T05:16:55.910Z,11.70
2023-05-12T05:17:28.083Z,11.70
2023-05-12T05:18:01.813Z,11.70
2023-05-12T05:18:33.608Z,11.70
2023-05-12T05:19:06.657Z,11.71
2023-05-12T05:19:54.830Z,11.73
2023-05-12T05:20:29.578Z,11.74
2023-05-12T05:21:03.297Z,11.75
2023-05-12T05:21:34.682Z,11.74
2023-05-12T05:22:06.040Z,11.76
2023-05-12T05:22:39.509Z,11.77
2023-05-12T05:23:12.058Z,11.78
2023-05-12T05:23:43.483Z,11.79
2023-05-12T05:24:14.989Z,11.78
2023-05-12T05:24:46.469Z,11.80
2023-05-12T05:25:18.011Z,11.80
2023-05-12T05:25:49.489Z,11.79
2023-05-12T05:26:21.528Z,11.80
2023-05-12T05:26:52.934Z,11.82
2023-05-12T05:27:24.332Z,11.80
2023-05-12T05:27:56.120Z,11.82
2023-05-12T05:28:27.482Z,11.83
2023-05-12T05:28:59.006Z,11.83
2023-05-12T05:29:30.434Z,11.83
2023-05-12T05:30:02.568Z,11.82
2023-05-12T05:30:34.038Z,11.83
2023-05-12T05:31:06.442Z,11.83
2023-05-12T05:31:38.703Z,11.84
2023-05-12T05:32:10.139Z,11.85
2023-05-12T05:32:41.594Z,11.85
2023-05-12T05:33:13.301Z,11.84
2023-05-12T05:33:44.884Z,11.85
2023-05-12T05:34:16.498Z,11.86
2023-05-12T05:34:47.882Z,11.86
2023-05-12T05:35:19.539Z,11.87
2023-05-12T05:35:51.299Z,11.88
2023-05-12T05:36:23.033Z,11.89
2023-05-12T05:36:54.637Z,11.89
2023-05-12T05:37:26.093Z,11.90
2023-05-12T05:37:57.545Z,11.91
2023-05-12T05:38:28.974Z,11.92
2023-05-12T05:39:00.590Z,11.90
2023-05-12T05:39:32.194Z,11.91
2023-05-12T05:40:03.917Z,11.92
2023-05-12T05:40:48.905Z,11.91
2023-05-12T05:41:24.623Z,11.91
2023-05-12T05:41:57.416Z,11.91
2023-05-12T05:42:28.830Z,11.92
2023-05-12T05:43:00.373Z,11.91
2023-05-12T05:43:31.807Z,11.92
2023-05-12T05:44:03.210Z,11.92
2023-05-12T05:44:34.533Z,11.94
2023-05-12T05:45:06.582Z,11.95
2023-05-12T05:45:37.974Z,11.95
2023-05-12T05:46:09.427Z,11.96
2023-05-12T05:46:40.903Z,11.97
2023-05-12T05:47:12.332Z,11.97
2023-05-12T05:47:43.776Z,11.98
2023-05-12T05:48:15.354Z,11.97
2023-05-12T05:48:46.722Z,11.97
2023-05-12T05:49:18.967Z,11.98
2023-05-12T05:49:50.322Z,11.99
2023-05-12T05:50:21.721Z,12.01
2023-05-12T05:50:53.947Z,12.00
2023-05-12T05:51:25.409Z,12.00
2023-05-12T05:51:56.956Z,12.00
2023-05-12T05:52:28.423Z,11.99
2023-05-12T05:52:59.754Z,11.99
2023-05-12T05:53:31.347Z,12.01
2023-05-12T05:54:02.902Z,12.00
2023-05-12T05:54:34.266Z,12.00
2023-05-12T05:55:05.937Z,12.02
2023-05-12T05:55:38.108Z,12.02
2023-05-12T05:56:09.742Z,12.03
2023-05-12T05:56:41.246Z,12.02
2023-05-12T05:57:12.746Z,12.01
2023-05-12T05:57:44.094Z,12.01
2023-05-12T05:58:15.617Z,12.02
2023-05-12T05:58:47.030Z,12.01
2023-05-12T05:59:18.424Z,12.02
2023-05-12T05:59:49.848Z,12.03
2023-05-12T06:00:21.271Z,12.03
2023-05-12T06:00:52.731Z,12.04
2023-05-12T06:01:24.142Z,12.05
2023-05-12T06:01:55.658Z,12.04
2023-05-12T06:02:27.930Z,12.05
2023-05-12T06:02:59.465Z,12.05
2023-05-12T06:03:31.413Z,12.07
2023-05-12T06:04:02.875Z,12.06
2023-05-12T06:04:34.370Z,12.09
2023-05-12T06:05:07.115Z,12.10
2023-05-12T06:05:38.816Z,12.12
2023-05-12T06:06:10.292Z,12.13
2023-05-12T06:06:41.751Z,12.14
2023-05-12T06:07:13.168Z,12.14
2023-05-12T06:07:44.564Z,12.16
2023-05-12T06:08:16.035Z,12.17
2023-05-12T06:08:47.533Z,12.18
2023-05-12T06:09:18.981Z,12.20
2023-05-12T06:09:50.395Z,12.21
2023-05-12T06:10:22.221Z,12.22
2023-05-12T06:10:53.856Z,12.22
2023-05-12T06:11:25.611Z,12.22
2023-05-12T06:11:56.972Z,12.22
2023-05-12T06:12:28.479Z,12.24
2023-05-12T06:12:59.897Z,12.24
2023-05-12T06:13:31.356Z,12.24
2023-05-12T06:14:02.727Z,12.23
2023-05-12T06:14:34.141Z,12.26
2023-05-12T06:15:06.054Z,12.26
2023-05-12T06:15:37.693Z,12.27
2023-05-12T06:16:09.142Z,12.27
2023-05-12T06:16:40.653Z,12.28
2023-05-12T06:17:12.259Z,12.30
2023-05-12T06:17:43.988Z,12.29
2023-05-12T06:18:16.204Z,12.30
2023-05-12T06:18:47.639Z,12.30
2023-05-12T06:19:19.077Z,12.30
2023-05-12T06:19:51.001Z,12.31
2023-05-12T06:20:23.369Z,12.32
2023-05-12T06:20:54.975Z,12.33
2023-05-12T06:21:26.373Z,12.33
2023-05-12T06:21:58.075Z,12.31
2023-05-12T06:22:29.417Z,12.31
2023-05-12T06:23:00.841Z,12.32
2023-05-12T06:23:32.419Z,12.33
2023-05-12T06:24:03.775Z,12.35
2023-05-12T06:24:35.116Z,12.35
2023-05-12T06:25:06.884Z,12.35
2023-05-12T06:25:38.264Z,12.37
2023-05-12T06:26:09.736Z,12.40
2023-05-12T06:26:41.093Z,12.42
2023-05-12T06:27:12.909Z,12.43
2023-05-12T06:27:44.548Z,12.43
2023-05-12T06:28:15.976Z,12.44
2023-05-12T06:28:47.758Z,12.45
2023-05-12T06:29:21.144Z,12.47
2023-05-12T06:29:52.543Z,12.47
2023-05-12T06:30:24.051Z,12.47
2023-05-12T06:30:55.464Z,12.48
2023-05-12T06:31:26.883Z,12.48
2023-05-12T06:31:58.304Z,12.47
2023-05-12T06:32:29.858Z,12.48
2023-05-12T06:33:01.487Z,12.48
2023-05-12T06:33:32.968Z,12.48
2023-05-12T06:34:04.630Z,12.47
2023-05-12T06:34:36.069Z,12.48
2023-05-12T06:35:07.915Z,12.48
2023-05-12T06:35:39.305Z,12.50
2023-05-12T06:36:12.121Z,12.51
2023-05-12T06:36:44.282Z,12.51
2023-05-12T06:37:15.897Z,12.53
2023-05-12T06:37:50.813Z,12.55
2023-05-12T06:38:22.226Z,12.55
2023-05-12T06:38:53.938Z,12.56
2023-05-12T06:39:25.387Z,12.56
2023-05-12T06:39:56.918Z,12.57
2023-05-12T06:40:28.316Z,12.60
2023-05-12T06:40:59.804Z,12.63
2023-05-12T06:41:32.220Z,12.64
2023-05-12T06:42:04.024Z,12.66
2023-05-12T06:42:35.584Z,12.66
2023-05-12T06:43:07.304Z,12.68
2023-05-12T06:43:38.905Z,12.69
2023-05-12T06:44:12.726Z,12.69
2023-05-12T06:44:44.158Z,12.70
2023-05-12T06:45:15.851Z,12.69
2023-05-12T06:45:47.290Z,12.69
2023-05-12T06:46:18.945Z,12.69
2023-05-12T06:46:50.522Z,12.69
2023-05-12T06:47:21.949Z,12.69
2023-05-12T06:47:53.437Z,12.70
2023-05-12T06:48:24.916Z,12.71
2023-05-12T06:48:56.369Z,12.71
2023-05-12T06:49:27.909Z,12.72
2023-05-12T06:49:59.242Z,12.71
2023-05-12T06:50:30.592Z,12.71
2023-05-12T06:51:02.080Z,12.74
2023-05-12T06:51:34.584Z,12.75
2023-05-12T06:52:06.759Z,12.76
2023-05-12T06:52:38.474Z,12.79
2023-05-12T06:53:09.891Z,12.80